Time;durP1;ratioP1;P1;durP2;ratioP2;P2;SDS_P1;SDS_P2;PMS_P1;PMS_P2;Temp;Humidity;BMP_temperature;BMP_pressure;BME280_temperature;BME280_humidity;BME280_pressure;Samples;Min_cycle;Max_cycle;Signal;HPM_P1;HPM_P2
2022/06/26 00:00:04;;;;;;;8.60;3.93;;;;;;;23.37;100.00;101258.28;2091855;28;20207;-66
2022/06/26 00:01:05;;;;;;;8.40;4.00;;;;;;;23.37;100.00;101252.63;2093237;28;20276;-65
2022/06/26 00:02:06;;;;;;;7.40;3.60;;;;;;;23.38;100.00;101263.44;2096571;28;20499;-66
2022/06/26 00:03:06;;;;;;;5.10;3.57;;;;;;;22.67;100.00;101161.19;2094058;28;20715;-66
2022/06/26 00:04:07;;;;;;;6.97;3.50;;;;;;;23.28;100.00;101253.63;2097734;28;20183;-65
2022/06/26 00:05:07;;;;;;;8.40;3.77;;;;;;;22.98;100.00;101220.50;2104100;28;20257;-65
2022/06/26 00:06:08;;;;;;;6.80;3.80;;;;;;;23.36;100.00;101256.75;2088328;28;20191;-65
2022/06/26 00:07:08;;;;;;;5.13;3.67;;;;;;;23.44;100.00;101269.16;2095039;28;20237;-66
2022/06/26 00:08:09;;;;;;;7.00;3.53;;;;;;;23.36;100.00;101259.56;2097342;28;20567;-66
2022/06/26 00:09:09;;;;;;;7.30;4.00;;;;;;;23.29;100.00;101262.88;2097163;28;20192;-66
2022/06/26 00:10:10;;;;;;;6.97;3.90;;;;;;;22.95;100.00;101213.00;2096697;28;20261;-65
2022/06/26 00:11:11;;;;;;;8.30;3.80;;;;;;;23.32;100.00;101262.66;2090304;28;20219;-65
2022/06/26 00:12:11;;;;;;;9.37;3.43;;;;;;;23.40;100.00;101258.06;2096587;28;20579;-66
2022/06/26 00:13:12;;;;;;;6.63;3.33;;;;;;;23.28;100.00;101244.38;2097075;28;20204;-66
2022/06/26 00:14:13;;;;;;;6.60;3.50;;;;;;;23.35;100.00;101264.47;2097440;28;20258;-66
2022/06/26 00:15:13;;;;;;;11.93;3.90;;;;;;;23.34;100.00;101262.16;2089359;28;20694;-66
2022/06/26 00:16:13;;;;;;;7.30;3.60;;;;;;;23.23;100.00;101253.59;2095249;28;20730;-66
2022/06/26 00:17:14;;;;;;;6.60;3.83;;;;;;;23.21;100.00;101265.41;2096703;28;20195;-66
2022/06/26 00:18:15;;;;;;;8.40;3.47;;;;;;;23.26;100.00;101269.53;2097212;28;20207;-65
2022/06/26 00:19:16;;;;;;;8.67;3.47;;;;;;;23.02;100.00;101232.34;2094147;28;20184;-66
2022/06/26 00:20:16;;;;;;;8.20;3.67;;;;;;;23.18;100.00;101268.47;2090731;28;20188;-66
2022/06/26 00:21:17;;;;;;;10.33;4.03;;;;;;;23.11;100.00;101257.56;2096286;28;20184;-65
2022/06/26 00:22:17;;;;;;;7.10;3.60;;;;;;;23.27;100.00;101276.72;2097013;28;20187;-66
2022/06/26 00:23:18;;;;;;;7.53;3.40;;;;;;;23.32;100.00;101281.66;2096501;28;20175;-65
2022/06/26 00:24:18;;;;;;;6.50;3.60;;;;;;;23.38;100.00;101271.19;2096554;28;20213;-66
2022/06/26 00:25:19;;;;;;;5.90;3.57;;;;;;;23.35;100.00;101272.97;2096810;28;20238;-66
2022/06/26 00:26:19;;;;;;;6.70;3.40;;;;;;;23.23;100.00;101262.09;2097133;28;20265;-66
2022/06/26 00:27:20;;;;;;;5.33;3.20;;;;;;;23.03;100.00;101229.00;2096464;28;20199;-65
2022/06/26 00:28:20;;;;;;;5.40;3.33;;;;;;;23.42;100.00;101278.13;2096880;28;20679;-66
2022/06/26 00:29:21;;;;;;;6.87;3.30;;;;;;;23.30;100.00;101256.72;2097220;28;20233;-66
2022/06/26 00:30:22;;;;;;;10.00;3.63;;;;;;;23.46;100.00;101277.88;2097473;28;20259;-66
2022/06/26 00:31:22;;;;;;;6.20;3.37;;;;;;;23.27;100.00;101246.41;2088716;28;20180;-67
2022/06/26 00:32:23;;;;;;;9.10;3.80;;;;;;;23.52;100.00;101273.03;2095955;28;20188;-66
2022/06/26 00:33:23;;;;;;;10.80;3.87;;;;;;;23.35;100.00;101244.69;2097296;28;20264;-66
2022/06/26 00:34:24;;;;;;;10.10;3.67;;;;;;;23.28;100.00;101221.75;2096340;28;20649;-65
2022/06/26 00:35:24;;;;;;;8.73;3.27;;;;;;;23.58;100.00;101266.13;2092174;28;20226;-66
2022/06/26 00:36:25;;;;;;;11.77;3.50;;;;;;;23.14;100.00;101197.97;2091322;28;20176;-65
2022/06/26 00:37:25;;;;;;;7.20;3.00;;;;;;;22.77;100.00;101143.53;2096823;28;20176;-66
2022/06/26 00:38:26;;;;;;;6.40;3.30;;;;;;;23.57;100.00;101255.31;2096989;28;20172;-66
2022/06/26 00:39:26;;;;;;;5.20;2.90;;;;;;;23.54;100.00;101242.19;2097447;28;20183;-67
2022/06/26 00:40:27;;;;;;;7.30;3.70;;;;;;;23.68;100.00;101255.34;2088965;28;20206;-66
2022/06/26 00:41:27;;;;;;;7.87;3.70;;;;;;;23.57;100.00;101258.13;2094031;28;20234;-65
2022/06/26 00:42:28;;;;;;;8.40;3.90;;;;;;;23.12;100.00;101177.91;2096869;28;20183;-66
2022/06/26 00:43:29;;;;;;;7.77;4.00;;;;;;;23.04;100.00;101185.34;2097087;28;20655;-66
2022/06/26 00:44:30;;;;;;;6.93;4.23;;;;;;;23.47;100.00;101254.75;2097495;28;20206;-66
2022/06/26 00:45:30;;;;;;;6.20;3.77;;;;;;;23.46;100.00;101258.09;2100344;28;20684;-66
2022/06/26 00:46:31;;;;;;;5.73;3.83;;;;;;;23.07;100.00;101186.34;2105659;28;20966;-66
2022/06/26 00:47:31;;;;;;;8.17;4.10;;;;;;;23.52;100.00;101256.84;2097819;28;20262;-66
2022/06/26 00:48:32;;;;;;;9.13;4.40;;;;;;;23.08;100.00;101196.41;2089942;28;20196;-66
2022/06/26 00:49:32;;;;;;;9.37;3.67;;;;;;;23.53;100.00;101263.25;2089786;28;20216;-66
2022/06/26 00:50:35;;;;;;;8.20;3.70;;;;;;;23.53;100.00;101241.41;2095923;28;20192;-66
2022/06/26 00:51:39;;;;;;;8.30;4.07;;;;;;;23.21;100.00;101211.69;2093422;28;20192;-65
2022/06/26 00:52:41;;;;;;;8.27;3.80;;;;;;;23.55;100.00;101269.19;2094290;28;20457;-65
2022/06/26 00:53:42;;;;;;;7.30;3.70;;;;;;;23.52;100.00;101258.88;2098606;28;20902;-66
2022/06/26 00:54:43;;;;;;;7.23;3.67;;;;;;;23.46;100.00;101255.25;2096370;28;20888;-66
2022/06/26 00:55:43;;;;;;;10.97;3.80;;;;;;;23.13;100.00;101210.56;2090235;28;20509;-66
2022/06/26 00:56:44;;;;;;;10.20;3.77;;;;;;;23.54;100.00;101267.66;2090433;28;20556;-66
2022/06/26 00:57:45;;;;;;;9.50;3.63;;;;;;;23.23;100.00;101211.94;2101570;28;20201;-65
2022/06/26 00:58:46;;;;;;;8.07;4.13;;;;;;;23.49;100.00;101266.34;2100043;28;20184;-66
2022/06/26 00:59:47;;;;;;;12.13;4.63;;;;;;;22.83;100.00;101166.19;2098650;28;20506;-66
2022/06/26 01:00:48;;;;;;;6.97;5.33;;;;;;;23.39;100.00;101259.34;2098363;28;20207;-66
2022/06/26 01:01:49;;;;;;;10.17;5.30;;;;;;;23.26;100.00;101258.22;2098473;28;20438;-66
2022/06/26 01:02:49;;;;;;;8.80;5.13;;;;;;;23.22;100.00;101255.63;2098467;28;20171;-65
2022/06/26 01:03:50;;;;;;;6.73;4.60;;;;;;;23.16;100.00;101259.66;2098430;28;20649;-66
2022/06/26 01:04:50;;;;;;;8.57;4.70;;;;;;;22.91;100.00;101227.38;2098087;28;20671;-66
2022/06/26 01:05:51;;;;;;;8.97;4.23;;;;;;;23.16;100.00;101265.31;2098845;28;20653;-66
2022/06/26 01:06:52;;;;;;;6.63;4.17;;;;;;;23.08;100.00;101267.84;2098481;28;20570;-66
2022/06/26 01:07:53;;;;;;;7.60;3.50;;;;;;;22.30;100.00;101158.28;2091812;28;20434;-65
2022/06/26 01:08:54;;;;;;;10.23;3.63;;;;;;;22.99;100.00;101276.53;2094691;28;20198;-66
2022/06/26 01:09:54;;;;;;;8.27;3.50;;;;;;;22.97;100.00;101284.72;2098558;28;20187;-66
2022/06/26 01:10:55;;;;;;;7.77;4.00;;;;;;;22.66;100.00;101227.44;2097302;28;20219;-65
2022/06/26 01:11:56;;;;;;;7.43;3.47;;;;;;;22.92;100.00;101271.31;2096658;28;20230;-66
2022/06/26 01:12:56;;;;;;;4.90;3.30;;;;;;;22.91;100.00;101283.91;2091180;28;20256;-65
2022/06/26 01:13:57;;;;;;;7.43;3.50;;;;;;;22.84;100.00;101292.84;2098788;28;20250;-66
2022/06/26 01:14:59;;;;;;;8.33;3.80;;;;;;;22.85;100.00;101283.09;2098145;28;20222;-66
2022/06/26 01:16:00;;;;;;;8.97;3.83;;;;;;;22.82;100.00;101283.31;2091454;28;20446;-65
2022/06/26 01:17:00;;;;;;;7.57;3.70;;;;;;;22.05;100.00;101167.56;2096218;28;20422;-66
2022/06/26 01:18:01;;;;;;;9.00;3.70;;;;;;;22.77;100.00;101279.16;2097701;28;20263;-65
2022/06/26 01:19:04;;;;;;;6.50;3.60;;;;;;;22.81;100.00;101281.75;2097832;28;20690;-66
2022/06/26 01:20:06;;;;;;;8.60;3.20;;;;;;;22.68;100.00;101265.19;2097912;28;20192;-65
2022/06/26 01:21:06;;;;;;;8.23;3.93;;;;;;;22.31;100.00;101215.56;2097827;28;20442;-66
2022/06/26 01:22:08;;;;;;;8.33;3.90;;;;;;;22.35;100.00;101216.88;2103984;28;20512;-67
2022/06/26 01:23:09;;;;;;;7.90;3.57;;;;;;;22.84;100.00;101292.06;2098695;28;20152;-66
2022/06/26 01:24:10;;;;;;;5.97;3.37;;;;;;;22.50;100.00;101236.53;2098302;28;20449;-66
2022/06/26 01:25:10;;;;;;;7.33;3.60;;;;;;;22.76;100.00;101286.09;2091204;28;20194;-66
2022/06/26 01:26:11;;;;;;;5.27;3.37;;;;;;;22.77;100.00;101290.47;2090144;28;20438;-66
2022/06/26 01:27:11;;;;;;;7.50;3.43;;;;;;;22.72;100.00;101281.97;2089758;28;20207;-66
2022/06/26 01:28:13;;;;;;;5.00;3.33;;;;;;;22.95;100.00;101283.69;2090229;28;20227;-67
2022/06/26 01:29:14;;;;;;;9.43;3.83;;;;;;;22.89;100.00;101282.88;2092760;28;20657;-66
2022/06/26 01:30:15;;;;;;;8.60;3.60;;;;;;;22.49;100.00;101235.78;2098329;28;20837;-66
2022/06/26 01:31:16;;;;;;;7.10;3.53;;;;;;;22.81;100.00;101279.72;2097783;28;20171;-66
2022/06/26 01:32:17;;;;;;;9.93;4.10;;;;;;;22.75;100.00;101280.94;2098559;28;20263;-66
2022/06/26 01:33:17;;;;;;;12.17;3.70;;;;;;;22.72;100.00;101287.59;2098428;28;20218;-66
2022/06/26 01:34:18;;;;;;;9.83;3.50;;;;;;;22.68;100.00;101290.63;2099947;28;20664;-66
2022/06/26 01:35:19;;;;;;;5.60;3.23;;;;;;;22.70;100.00;101292.97;2105724;28;20183;-66
2022/06/26 01:36:19;;;;;;;6.77;3.50;;;;;;;22.43;100.00;101280.13;2105997;28;20485;-65
2022/06/26 01:37:20;;;;;;;7.53;3.87;;;;;;;22.45;100.00;101299.38;2097808;28;20237;-65
2022/06/26 01:38:23;;;;;;;5.47;3.30;;;;;;;22.14;100.00;101240.00;2096202;28;20187;-66
2022/06/26 01:39:23;;;;;;;8.33;3.80;;;;;;;22.41;100.00;101290.34;2091150;28;20665;-65
2022/06/26 01:40:24;;;;;;;7.23;3.27;;;;;;;22.39;100.00;101290.06;2098528;28;20926;-66
2022/06/26 01:41:25;;;;;;;6.40;3.40;;;;;;;22.42;100.00;101295.47;2089985;28;20260;-65
2022/06/26 01:42:25;;;;;;;6.13;3.80;;;;;;;22.45;100.00;101291.72;2096437;28;20445;-65
2022/06/26 01:43:29;;;;;;;8.57;3.30;;;;;;;22.39;100.00;101287.25;2097850;28;20594;-66
2022/06/26 01:44:30;;;;;;;7.97;4.13;;;;;;;22.17;100.00;101256.75;2097871;28;20610;-65
2022/06/26 01:45:31;;;;;;;5.97;3.53;;;;;;;22.52;100.00;101294.06;2097371;28;20554;-66
2022/06/26 01:46:31;;;;;;;7.40;3.70;;;;;;;22.46;100.00;101289.66;2097361;28;20640;-65
2022/06/26 01:47:32;;;;;;;6.83;3.40;;;;;;;22.55;100.00;101300.78;2097540;28;20172;-66
2022/06/26 01:48:34;;;;;;;7.93;3.90;;;;;;;21.89;100.00;101204.06;2097369;28;20656;-65
2022/06/26 01:49:35;;;;;;;8.13;3.40;;;;;;;22.41;100.00;101284.72;2090394;28;20181;-66
2022/06/26 01:50:35;;;;;;;7.63;3.70;;;;;;;22.45;100.00;101296.56;2090014;28;20447;-66
2022/06/26 01:51:36;;;;;;;7.23;3.13;;;;;;;22.07;100.00;101261.00;2089587;28;20222;-66
2022/06/26 01:52:36;;;;;;;6.53;3.60;;;;;;;22.39;100.00;101302.16;2096004;28;20187;-66
2022/06/26 01:53:37;;;;;;;10.30;4.10;;;;;;;22.01;100.00;101296.81;2093405;28;20200;-66
2022/06/26 01:54:38;;;;;;;8.97;3.70;;;;;;;21.70;100.00;101291.03;2093143;28;20254;-66
2022/06/26 01:55:39;;;;;;;8.20;3.80;;;;;;;21.42;100.00;101272.94;2097825;28;20262;-65
2022/06/26 01:56:42;;;;;;;10.13;3.87;;;;;;;21.24;100.00;101232.97;2098154;28;20254;-66
2022/06/26 01:57:42;;;;;;;7.77;3.77;;;;;;;21.73;100.00;101317.50;2100100;28;20186;-66
2022/06/26 01:58:43;;;;;;;7.13;4.20;;;;;;;21.65;100.00;101319.16;2097697;28;20483;-66
2022/06/26 01:59:44;;;;;;;6.17;3.90;;;;;;;21.64;100.00;101318.38;2097566;28;20184;-66
2022/06/26 02:00:46;;;;;;;6.17;3.50;;;;;;;21.64;100.00;101328.91;2098059;28;20208;-66
2022/06/26 02:01:47;;;;;;;8.53;3.87;;;;;;;21.66;100.00;101329.16;2098063;28;20261;-66
2022/06/26 02:02:47;;;;;;;8.23;3.70;;;;;;;21.59;100.00;101333.16;2097955;28;20429;-65
2022/06/26 02:03:48;;;;;;;11.10;4.13;;;;;;;22.72;100.00;101335.63;2098124;28;20270;-66
2022/06/26 02:04:49;;;;;;;8.30;3.57;;;;;;;21.93;100.00;101261.84;2095376;28;20218;-66
2022/06/26 02:05:50;;;;;;;5.33;3.33;;;;;;;22.34;100.00;101331.09;2089685;28;20211;-66
2022/06/26 02:06:50;;;;;;;8.73;4.03;;;;;;;22.28;100.00;101332.31;2089733;28;20198;-66
2022/06/26 02:07:51;;;;;;;10.83;3.43;;;;;;;21.88;100.00;101279.50;2089500;28;20501;-65
2022/06/26 02:08:51;;;;;;;6.33;3.50;;;;;;;22.21;100.00;101330.69;2097188;28;20190;-65
2022/06/26 02:13:49;;;;;;;9.00;3.60;;;;;;;22.00;100.00;101342.50;2089731;28;20928;-65
2022/06/26 02:14:49;;;;;;;9.77;4.20;;;;;;;21.83;100.00;101330.19;2089643;28;20822;-66
2022/06/26 02:15:51;;;;;;;9.27;4.23;;;;;;;21.90;100.00;101346.72;2091755;28;20597;-66
2022/06/26 02:16:51;;;;;;;11.93;4.17;;;;;;;21.86;100.00;101332.03;2097350;28;20195;-67
2022/06/26 02:17:52;;;;;;;11.63;4.20;;;;;;;21.99;100.00;101349.38;2091773;28;20548;-65
2022/06/26 02:18:55;;;;;;;9.10;4.10;;;;;;;22.07;100.00;101350.53;2094294;28;20202;-66
2022/06/26 02:19:56;;;;;;;11.63;4.80;;;;;;;22.09;100.00;101347.97;2094150;28;20658;-65
2022/06/26 02:20:56;;;;;;;11.13;4.70;;;;;;;22.05;100.00;101339.72;2091890;28;20830;-66
2022/06/26 02:21:57;;;;;;;11.63;4.50;;;;;;;22.04;100.00;101345.84;2101556;28;20175;-66
2022/06/26 02:22:57;;;;;;;10.67;4.00;;;;;;;21.92;100.00;101328.03;2097508;28;20234;-65
2022/06/26 02:23:59;;;;;;;14.10;4.23;;;;;;;22.03;100.00;101341.50;2098198;28;20182;-66
2022/06/26 02:25:00;;;;;;;12.00;3.83;;;;;;;21.99;100.00;101341.72;2089870;28;20638;-65
2022/06/26 02:26:02;;;;;;;10.40;3.80;;;;;;;21.98;100.00;101340.16;2096511;28;20444;-65
2022/06/26 02:27:03;;;;;;;7.60;3.80;;;;;;;21.91;100.00;101337.75;2097659;28;20803;-66
2022/06/26 02:28:04;;;;;;;7.30;3.83;;;;;;;21.88;100.00;101338.75;2097492;28;20467;-65
2022/06/26 02:29:05;;;;;;;7.10;3.90;;;;;;;21.98;100.00;101345.81;2097797;28;20206;-66
2022/06/26 02:30:06;;;;;;;7.03;3.90;;;;;;;21.97;100.00;101340.66;2097849;28;20406;-65
2022/06/26 02:31:07;;;;;;;8.80;4.23;;;;;;;21.52;100.00;101284.88;2096102;28;20267;-65
2022/06/26 02:32:08;;;;;;;5.83;4.10;;;;;;;21.91;100.00;101340.56;2090029;28;20191;-66
2022/06/26 02:33:09;;;;;;;8.23;4.10;;;;;;;21.39;100.00;101270.34;2098012;28;20464;-65
2022/06/26 02:34:09;;;;;;;7.20;4.17;;;;;;;21.28;100.00;101279.41;2104926;28;20678;-65
2022/06/26 02:35:10;;;;;;;6.23;4.50;;;;;;;21.52;100.00;101304.59;2107130;28;20175;-65
2022/06/26 02:36:10;;;;;;;7.23;4.33;;;;;;;21.81;100.00;101347.59;2105395;28;20275;-65
2022/06/26 02:37:11;;;;;;;6.10;4.00;;;;;;;21.51;100.00;101297.41;2097248;28;20567;-66
2022/06/26 02:38:11;;;;;;;10.37;4.43;;;;;;;21.47;100.00;101294.81;2094149;28;20203;-65
2022/06/26 02:39:12;;;;;;;8.53;4.57;;;;;;;21.71;100.00;101357.50;2090758;28;20176;-65
2022/06/26 02:40:12;;;;;;;6.80;4.00;;;;;;;21.63;100.00;101352.72;2090564;28;20249;-67
2022/06/26 02:41:13;;;;;;;8.00;4.40;;;;;;;21.64;100.00;101360.69;2097535;28;20194;-65
2022/06/26 02:42:14;;;;;;;9.30;4.10;;;;;;;21.66;100.00;101366.63;2096889;28;20247;-66
2022/06/26 02:43:14;;;;;;;9.30;4.57;;;;;;;21.68;100.00;101364.13;2090536;28;20771;-65
2022/06/26 02:44:16;;;;;;;7.70;4.27;;;;;;;21.62;100.00;101356.78;2095026;28;20256;-65
2022/06/26 02:45:18;;;;;;;7.00;4.13;;;;;;;21.69;100.00;101367.72;2092724;28;20191;-66
2022/06/26 02:46:18;;;;;;;5.83;3.87;;;;;;;21.75;100.00;101358.03;2102300;28;20473;-65
2022/06/26 02:47:19;;;;;;;10.30;4.27;;;;;;;21.72;100.00;101358.25;2097048;28;20436;-66
2022/06/26 02:48:20;;;;;;;8.13;4.67;;;;;;;21.66;100.00;101348.91;2096300;28;20187;-65
2022/06/26 02:49:21;;;;;;;13.00;4.53;;;;;;;21.22;100.00;101292.63;2089976;28;20185;-66
2022/06/26 02:50:21;;;;;;;8.50;4.10;;;;;;;21.81;100.00;101361.72;2097772;28;20426;-66
2022/06/26 02:51:22;;;;;;;7.97;4.03;;;;;;;21.64;100.00;101348.63;2097394;28;20186;-65
2022/06/26 02:52:22;;;;;;;8.43;4.10;;;;;;;21.69;100.00;101362.84;2097699;28;20719;-65
2022/06/26 02:53:22;;;;;;;8.10;4.33;;;;;;;21.64;100.00;101360.69;2092586;28;20218;-65
2022/06/26 02:54:23;;;;;;;7.07;4.53;;;;;;;21.68;100.00;101366.94;2093414;28;20197;-66
2022/06/26 02:55:23;;;;;;;8.43;4.50;;;;;;;21.64;100.00;101362.75;2097479;28;20187;-66
2022/06/26 02:56:24;;;;;;;8.60;4.10;;;;;;;20.74;100.00;101240.63;2097467;28;20741;-65
2022/06/26 02:57:24;;;;;;;10.33;4.47;;;;;;;21.63;100.00;101370.41;2096916;28;20190;-66
2022/06/26 02:58:25;;;;;;;8.77;4.60;;;;;;;21.58;100.00;101379.56;2097941;28;20635;-65
2022/06/26 02:59:25;;;;;;;8.03;4.30;;;;;;;21.53;100.00;101371.81;2097933;28;20182;-65
2022/06/26 03:00:26;;;;;;;7.53;4.03;;;;;;;21.18;100.00;101311.78;2097018;28;20191;-66
2022/06/26 03:01:26;;;;;;;8.40;3.87;;;;;;;21.57;100.00;101374.41;2096612;28;20188;-66
2022/06/26 03:02:27;;;;;;;7.90;4.13;;;;;;;21.72;100.00;101375.19;2100740;28;20201;-66
2022/06/26 03:03:27;;;;;;;13.07;4.33;;;;;;;21.70;100.00;101377.72;2097006;28;20195;-67
2022/06/26 03:04:28;;;;;;;10.27;4.03;;;;;;;21.56;100.00;101355.94;2096340;28;20716;-66
2022/06/26 03:05:32;;;;;;;8.60;4.27;;;;;;;21.75;100.00;101379.84;2096681;28;20257;-66
2022/06/26 03:06:32;;;;;;;8.77;3.43;;;;;;;21.33;100.00;101311.78;2097059;28;20178;-66
2022/06/26 03:07:33;;;;;;;7.20;3.93;;;;;;;21.80;100.00;101376.34;2097007;28;20413;-66
2022/06/26 03:08:33;;;;;;;9.17;4.00;;;;;;;21.87;100.00;101388.00;2097567;28;20186;-66
2022/06/26 03:09:34;;;;;;;9.00;4.40;;;;;;;21.96;100.00;101384.25;2097597;28;20190;-65
2022/06/26 03:10:34;;;;;;;9.80;4.80;;;;;;;20.37;100.00;101140.94;2097782;28;20198;-65
2022/06/26 03:11:35;;;;;;;9.30;4.17;;;;;;;21.98;100.00;101388.13;2097071;28;20187;-65
2022/06/26 03:12:46;;;;;;;9.17;4.30;;;;;;;21.82;100.00;101368.16;2097271;28;20176;-66
2022/06/26 03:13:47;;;;;;;8.33;4.10;;;;;;;21.90;100.00;101384.16;2094664;28;20633;-67
2022/06/26 03:14:47;;;;;;;6.77;3.87;;;;;;;21.51;100.00;101334.88;2088356;28;20415;-65
2022/06/26 03:15:48;;;;;;;9.87;4.00;;;;;;;21.78;100.00;101392.97;2080942;28;20697;-67
2022/06/26 03:16:48;;;;;;;6.70;4.23;;;;;;;21.86;100.00;101394.13;2097284;28;20217;-66
2022/06/26 03:17:49;;;;;;;8.47;3.80;;;;;;;21.90;100.00;101395.44;2096698;28;20234;-65
2022/06/26 03:18:49;;;;;;;6.33;3.77;;;;;;;21.45;100.00;101328.34;2090715;28;20191;-66
2022/06/26 03:19:50;;;;;;;9.00;3.93;;;;;;;21.28;100.00;101327.31;2094878;28;20670;-66
2022/06/26 03:20:50;;;;;;;7.23;3.50;;;;;;;21.59;100.00;101349.34;2092591;28;20266;-66
2022/06/26 03:21:51;;;;;;;8.83;3.73;;;;;;;21.92;100.00;101387.28;2093538;28;20188;-65
2022/06/26 03:22:51;;;;;;;9.30;3.60;;;;;;;22.02;100.00;101388.72;2097166;28;20223;-65
2022/06/26 03:24:01;;;;;;;10.20;4.07;;;;;;;21.87;100.00;101385.16;2097733;28;20184;-66
2022/06/26 03:25:02;;;;;;;8.20;3.47;;;;;;;21.93;100.00;101388.06;2097111;28;20231;-65
2022/06/26 03:26:02;;;;;;;10.30;3.60;;;;;;;21.95;100.00;101386.28;2097711;28;20416;-66
2022/06/26 03:27:03;;;;;;;8.47;3.83;;;;;;;21.73;100.00;101352.13;2097330;28;20414;-66
2022/06/26 03:28:04;;;;;;;8.57;3.83;;;;;;;21.72;100.00;101333.66;2096250;28;20192;-65
2022/06/26 03:29:09;;;;;;;10.43;4.33;;;;;;;21.71;100.00;101325.69;2090800;28;20199;-66
2022/06/26 03:30:11;;;;;;;6.20;3.67;;;;;;;21.95;100.00;101375.00;2094868;28;20179;-65
2022/06/26 03:31:11;;;;;;;9.23;3.90;;;;;;;21.92;100.00;101373.19;2096858;28;20982;-66
2022/06/26 03:32:12;;;;;;;8.93;3.73;;;;;;;21.44;100.00;101283.75;2093944;28;20887;-65
2022/06/26 03:33:12;;;;;;;12.40;4.10;;;;;;;22.02;100.00;101368.16;2088992;28;20359;-67
2022/06/26 03:34:13;;;;;;;8.53;4.20;;;;;;;21.45;100.00;101294.50;2102913;28;20676;-66
2022/06/26 03:35:14;;;;;;;6.53;3.70;;;;;;;22.02;100.00;101368.94;2097362;28;20202;-66
2022/06/26 03:36:14;;;;;;;8.53;4.27;;;;;;;21.80;100.00;101331.94;2097172;28;20545;-66
2022/06/26 03:37:15;;;;;;;6.67;4.13;;;;;;;22.05;100.00;101361.53;2090055;28;20215;-66
2022/06/26 03:38:15;;;;;;;6.30;4.40;;;;;;;22.11;100.00;101382.91;2094998;28;20187;-66
2022/06/26 03:39:16;;;;;;;11.07;5.07;;;;;;;22.13;100.00;101390.88;2097362;28;20183;-66
2022/06/26 03:40:17;;;;;;;9.93;4.57;;;;;;;22.12;100.00;101392.94;2097237;28;20188;-66
2022/06/26 03:41:18;;;;;;;10.40;4.67;;;;;;;22.03;100.00;101375.34;2096065;28;20702;-66
2022/06/26 03:42:18;;;;;;;7.90;4.10;;;;;;;21.67;100.00;101384.31;2088100;28;20253;-66
2022/06/26 03:43:19;;;;;;;8.33;4.87;;;;;;;21.45;100.00;101390.38;2088491;28;20431;-66
2022/06/26 03:44:19;;;;;;;6.30;4.80;;;;;;;21.40;100.00;101387.50;2096906;28;20172;-66
2022/06/26 03:45:20;;;;;;;7.70;4.53;;;;;;;20.87;100.00;101314.31;2104423;28;20282;-66
2022/06/26 03:46:20;;;;;;;7.47;4.93;;;;;;;21.35;100.00;101385.34;2096478;28;20770;-66
2022/06/26 03:47:21;;;;;;;6.47;4.50;;;;;;;21.35;100.00;101388.19;2096177;28;20681;-67
2022/06/26 03:48:21;;;;;;;9.37;4.23;;;;;;;21.10;100.00;101364.19;2101050;28;20191;-66
2022/06/26 03:49:23;;;;;;;7.97;4.57;;;;;;;21.36;100.00;101401.00;2096714;28;20292;-67
2022/06/26 03:50:23;;;;;;;6.63;4.40;;;;;;;21.36;100.00;101404.63;2088992;28;20260;-66
2022/06/26 03:51:24;;;;;;;8.27;4.83;;;;;;;21.38;100.00;101410.53;2089174;28;20414;-66
2022/06/26 03:52:24;;;;;;;8.23;4.53;;;;;;;21.26;100.00;101383.44;2097694;28;20171;-67
2022/06/26 03:53:25;;;;;;;8.50;4.27;;;;;;;21.17;100.00;101377.09;2097375;28;20202;-66
2022/06/26 03:54:26;;;;;;;6.90;4.30;;;;;;;21.39;100.00;101403.63;2090147;28;20188;-66
2022/06/26 03:55:27;;;;;;;8.67;4.50;;;;;;;21.18;100.00;101368.16;2094611;28;20195;-66
2022/06/26 03:56:27;;;;;;;8.77;4.13;;;;;;;21.45;100.00;101400.91;2097122;28;20434;-66
2022/06/26 03:57:28;;;;;;;8.90;4.67;;;;;;;21.44;100.00;101407.81;2096518;28;20189;-66
2022/06/26 03:58:29;;;;;;;8.40;4.43;;;;;;;21.45;100.00;101398.09;2094905;28;20700;-66
2022/06/26 03:59:30;;;;;;;9.77;4.63;;;;;;;21.14;100.00;101352.72;2090049;28;20277;-66
2022/06/26 04:00:30;;;;;;;10.33;4.30;;;;;;;21.24;100.00;101379.53;2097310;28;20214;-67
2022/06/26 04:01:31;;;;;;;6.57;3.93;;;;;;;21.48;100.00;101406.34;2088816;28;20952;-66
2022/06/26 04:02:31;;;;;;;7.07;3.80;;;;;;;21.01;100.00;101338.94;2095931;28;20184;-66
2022/06/26 04:03:32;;;;;;;10.60;4.70;;;;;;;21.01;100.00;101333.31;2091167;28;20188;-66
2022/06/26 04:04:32;;;;;;;7.57;3.70;;;;;;;21.53;100.00;101408.47;2093606;28;20669;-66
2022/06/26 04:05:34;;;;;;;6.47;3.87;;;;;;;21.54;100.00;101412.06;2097255;28;20192;-66
2022/06/26 04:06:35;;;;;;;6.13;3.77;;;;;;;21.55;100.00;101403.09;2094269;28;20593;-66
2022/06/26 04:07:35;;;;;;;6.20;3.93;;;;;;;21.20;100.00;101345.13;2090009;28;20419;-66
2022/06/26 04:08:36;;;;;;;6.63;3.70;;;;;;;21.47;100.00;101392.72;2096329;28;20188;-66
2022/06/26 04:09:36;;;;;;;6.40;3.83;;;;;;;21.50;100.00;101392.50;2096870;28;20259;-66
2022/06/26 04:10:37;;;;;;;6.53;3.60;;;;;;;21.60;100.00;101404.47;2089634;28;20279;-67
2022/06/26 04:11:38;;;;;;;6.63;3.87;;;;;;;21.63;100.00;101398.63;2095136;28;20187;-66
2022/06/26 04:12:39;;;;;;;7.90;3.80;;;;;;;21.51;100.00;101373.56;2096916;28;21022;-66
2022/06/26 04:13:39;;;;;;;6.30;3.63;;;;;;;22.60;100.00;101396.09;2097270;28;20192;-66
2022/06/26 04:14:41;;;;;;;10.37;4.43;;;;;;;22.42;100.00;101402.03;2096726;28;20241;-66
2022/06/26 04:15:41;;;;;;;7.17;3.50;;;;;;;22.46;100.00;101397.00;2097147;28;20180;-67
2022/06/26 04:16:42;;;;;;;8.37;3.80;;;;;;;22.51;100.00;101397.03;2096933;28;20421;-66
2022/06/26 04:17:43;;;;;;;7.53;3.57;;;;;;;22.63;100.00;101390.22;2096881;28;20748;-66
2022/06/26 04:18:44;;;;;;;8.00;3.73;;;;;;;22.76;100.00;101384.19;2096225;28;20244;-66
2022/06/26 04:19:44;;;;;;;6.63;3.70;;;;;;;22.47;100.00;101347.69;2089779;28;20458;-66
2022/06/26 04:20:45;;;;;;;7.80;3.90;;;;;;;22.74;100.00;101379.06;2094635;28;20240;-66
2022/06/26 04:21:45;;;;;;;6.27;3.47;;;;;;;22.78;100.00;101384.50;2096846;28;20549;-66
2022/06/26 04:22:57;;;;;;;6.30;3.60;;;;;;;22.82;100.00;101393.53;2093274;28;20254;-66
2022/06/26 04:23:57;;;;;;;5.43;3.60;;;;;;;22.88;100.00;101385.88;2092664;28;20197;-66
2022/06/26 04:24:58;;;;;;;5.23;3.27;;;;;;;22.79;100.00;101381.19;2094145;28;20460;-66
2022/06/26 04:25:58;;;;;;;8.20;3.50;;;;;;;22.90;100.00;101392.59;2090548;28;20264;-66
2022/06/26 04:26:59;;;;;;;7.27;3.63;;;;;;;22.96;100.00;101393.41;2096608;28;20203;-66
2022/06/26 04:28:00;;;;;;;5.33;3.63;;;;;;;22.92;100.00;101387.19;2088499;28;20226;-66
2022/06/26 04:29:00;;;;;;;7.70;3.80;;;;;;;22.93;100.00;101377.44;2096544;28;20176;-66
2022/06/26 04:30:01;;;;;;;5.27;3.73;;;;;;;23.01;100.00;101394.72;2097225;28;20438;-66
2022/06/26 04:31:01;;;;;;;8.80;3.50;;;;;;;22.85;100.00;101387.66;2090199;28;20222;-66
2022/06/26 04:32:02;;;;;;;6.80;3.83;;;;;;;22.50;100.00;101315.63;2088366;28;20218;-66
2022/06/26 04:33:03;;;;;;;5.93;3.80;;;;;;;23.07;100.00;101396.34;2088910;28;20196;-66
2022/06/26 04:34:03;;;;;;;9.57;3.60;;;;;;;22.93;100.00;101371.78;2106795;28;20181;-67
2022/06/26 04:35:04;;;;;;;6.93;3.73;;;;;;;23.12;100.00;101400.50;2104538;28;20691;-66
2022/06/26 04:36:04;;;;;;;6.73;3.87;;;;;;;22.75;100.00;101352.38;2097324;28;20679;-67
2022/06/26 04:37:05;;;;;;;6.67;3.70;;;;;;;23.08;100.00;101395.06;2088716;28;20184;-66
2022/06/26 04:38:05;;;;;;;5.97;3.47;;;;;;;23.10;100.00;101395.34;2088661;28;20185;-66
2022/06/26 04:39:06;;;;;;;7.73;3.77;;;;;;;22.99;100.00;101380.34;2093926;28;20195;-66
2022/06/26 04:40:09;;;;;;;9.97;3.70;;;;;;;23.11;100.00;101402.56;2096451;28;20183;-66
2022/06/26 04:42:29;;;;;;;7.13;3.57;;;;;;;23.09;100.00;101398.69;2096990;28;20578;-66
2022/06/26 04:43:29;;;;;;;5.07;3.40;;;;;;;23.16;100.00;101403.88;2092817;28;20447;-66
2022/06/26 04:44:30;;;;;;;8.70;3.90;;;;;;;23.22;100.00;101399.06;2088356;28;20192;-66